x

Buoy M01 - Jordan Basin (44037) Weather Station

6:04am - Tue 3rd Mar 2015 All times are EST. -5 hours from GMT.

  • Wind
    27mph, 38mph gusts
  • Air Temp 22°f
  • Sea Pressure 1024.5mb
  • Buoy M01 - Jordan Basin
  • Buoy M01 - Jordan Basin

More Historic Weather Station data

Upgrade to MSW Pro to gain access to the past 30 days of data for over 8000 Wavebouys and Weather Stations around the globe.

Join Pro

Comparision Forecast

View Surf forecast
   
Tue 03/03 6:04am  -   -  27 38 mph 1024.5mb - 22f
5:04am  -   -  29 38 mph 1023.7mb - 22f
4:04am 10ft 8s 29 36 mph 1022.6mb 37f 22f
3:04am 11ft 8s 31 40 mph 1021.6mb 37f 22f
1:04am 12ft 8s  -  mph - 37f -
Mon 03/02 9:04pm  -   -  36 47 mph 1014.5mb - 29f
8:04pm 11.5ft 8s 36 47 mph 1013.4mb - 28f
7:04pm 12ft 8s 38 49 mph 1012.6mb 37f 29f
6:04pm 10ft 6s 34 45 mph 1011.5mb 37f 29f
5:04pm 9ft 6s 38 49 mph 1009.9mb 37f 31f
4:04pm 9ft 5s 40 49 mph 1008.5mb - 30f
3:04pm 7ft 5s 29 45 mph 1008.1mb 37f 33f
2:04pm  -   -  27 36 mph 1008.1mb - 31f
1:04pm 5ft 5s 27 31 mph 1008.1mb 37f 30f
12:04pm 5ft 5s 27 31 mph 1008.5mb 37f 32f
11:04am 4.5ft 5s 22 27 mph 1008.8mb - 30f
10:04am 4.5ft 6s 20 25 mph 1009mb 37f 30f
9:04am  -   -  20 25 mph 1009.2mb - 31f
7:04am  -   -  18 20 mph 1009.9mb - 31f
6:04am 5ft 5s 13 18 mph 1010.6mb - 31f
5:04am 5ft 6s 16 18 mph 1011.3mb 37f 33f
4:04am 4.5ft 6s 13 18 mph 1011.7mb 37f 33f
3:04am 4.5ft 6s 13 18 mph 1013.4mb 37f 33f
2:04am 5ft 6s 13 16 mph 1015.4mb 37f 33f
1:04am  -   -  16 18 mph 1017.6mb - 33f
12:04am 5ft 6s 18 22 mph 1019.1mb 37f 33f
Sun 03/01 11:04pm 5.5ft 6s 20 25 mph 1020.8mb 37f 33f
8:04pm  -   -  22 27 mph 1025.2mb - 31f
7:04pm 5ft 5s 22 27 mph 1027.2mb 37f 32f
6:04pm 4.5ft 5s 22 27 mph 1028.5mb 37f 32f
5:04pm  -   -  22 27 mph 1029.3mb - 33f
3:04pm 3ft 4s 18 20 mph 1030.8mb 37f 34f
2:04pm 3ft 4s 18 20 mph 1031.7mb 37f 34f
11:04am 2.5ft 11s 13 16 mph 1035.7mb 37f 36f
10:04am  -   -  9 11 mph 1036.4mb - 35f
8:04am 2.5ft 8s 2 4 mph 1037.5mb 37f 36f
7:04am 2ft 4s 4 7 mph 1036.9mb 37f 34f
6:04am 3ft 11s 4 7 mph 1037.3mb - 28f
5:04am 2ft 4s 4 7 mph 1038mb - 28f
4:04am 2ft 4s 13 16 mph 1038.1mb 37f 29f
3:04am 3.5ft 11s 11 13 mph 1037.8mb 37f 31f
2:04am 2.5ft 4s 11 16 mph 1037.8mb 37f 31f
Sat 02/28 11:04pm 4ft 11s 13 16 mph 1038.1mb 37f 28f
10:04pm  -   -  13 16 mph 1038.3mb - 28f
9:04pm  -   -  13 16 mph 1038.1mb - 28f
8:04pm  -   -  16 20 mph 1037.8mb - 27f
7:04pm  -   -  16 18 mph 1037.8mb - 27f
5:04pm  -   -  18 22 mph 1037.5mb - 27f
4:04pm 3ft 11s 13 18 mph 1037.7mb 37f 28f
2:04pm 3.5ft 11s 9 13 mph 1038.2mb 37f 29f
1:04pm 4ft 11s 7 11 mph 1038.6mb 37f 31f
12:04pm 3.5ft 11s 7 11 mph 1039.1mb 37f 29f
11:04am 3.5ft 11s 9 11 mph 1039.2mb 37f 28f
10:04am 5ft 11s 9 11 mph 1038.8mb 37f 26f
9:04am 5ft 11s 9 11 mph 1038.6mb 37f 25f
7:04am 3.5ft 5s 13 16 mph 1036.9mb 37f 22f
2:04am 4ft 5s 18 20 mph 1033mb 37f 23f
12:04am  -   -  20 27 mph 1031.1mb - 26f
Fri 02/27 11:04pm  -   -  18 20 mph 1030.5mb - 26f
10:04pm  -   -  16 22 mph 1030mb - 25f
5:04pm  -   -  13 20 mph 1027.1mb - 22f
3:04pm 5ft 11s 16 20 mph 1026.3mb 37f 25f
2:04pm 4.5ft 11s 11 16 mph 1026.1mb 37f 23f
1:04pm 4.5ft 11s 9 13 mph 1025.9mb - 25f